sensor_id;sensor_type;location;lat;lon;timestamp;temperature;humidity
1011;DHT22;494;48.744;10.106;2023-08-21T00:00:49;24.20;1.00
1011;DHT22;494;48.744;10.106;2023-08-21T00:03:18;24.40;1.00
1011;DHT22;494;48.744;10.106;2023-08-21T00:05:49;24.40;1.00
1011;DHT22;494;48.744;10.106;2023-08-21T00:08:18;24.40;1.00
1011;DHT22;494;48.744;10.106;2023-08-21T00:10:47;24.40;1.00
1011;DHT22;494;48.744;10.106;2023-08-21T00:13:16;24.40;1.00
1011;DHT22;494;48.744;10.106;2023-08-21T00:15:45;24.30;1.00
1011;DHT22;494;48.744;10.106;2023-08-21T00:18:15;24.40;1.00
1011;DHT22;494;48.744;10.106;2023-08-21T00:20:43;24.40;1.00
1011;DHT22;494;48.744;10.106;2023-08-21T00:23:14;24.40;1.00
1011;DHT22;494;48.744;10.106;2023-08-21T00:25:46;24.40;1.00
1011;DHT22;494;48.744;10.106;2023-08-21T00:28:16;24.20;1.00
1011;DHT22;494;48.744;10.106;2023-08-21T00:30:45;24.20;1.00
1011;DHT22;494;48.744;10.106;2023-08-21T00:33:15;24.20;1.00
1011;DHT22;494;48.744;10.106;2023-08-21T00:35:44;24.20;1.00
1011;DHT22;494;48.744;10.106;2023-08-21T00:38:14;24.10;1.00
1011;DHT22;494;48.744;10.106;2023-08-21T00:40:44;24.20;1.00
1011;DHT22;494;48.744;10.106;2023-08-21T00:43:13;24.20;1.00
1011;DHT22;494;48.744;10.106;2023-08-21T00:45:44;24.20;1.00
1011;DHT22;494;48.744;10.106;2023-08-21T00:48:14;24.20;1.00
1011;DHT22;494;48.744;10.106;2023-08-21T00:50:44;24.20;1.00
1011;DHT22;494;48.744;10.106;2023-08-21T00:53:15;24.20;1.00
1011;DHT22;494;48.744;10.106;2023-08-21T00:55:45;24.20;1.00
1011;DHT22;494;48.744;10.106;2023-08-21T00:58:14;24.20;1.00
1011;DHT22;494;48.744;10.106;2023-08-21T01:00:45;24.10;1.00
1011;DHT22;494;48.744;10.106;2023-08-21T01:03:18;24.10;1.00
1011;DHT22;494;48.744;10.106;2023-08-21T01:05:47;24.10;1.00
1011;DHT22;494;48.744;10.106;2023-08-21T01:08:25;24.00;1.00
1011;DHT22;494;48.744;10.106;2023-08-21T01:11:02;24.00;1.00
1011;DHT22;494;48.744;10.106;2023-08-21T01:13:45;23.90;1.00
1011;DHT22;494;48.744;10.106;2023-08-21T01:16:21;23.90;1.00
1011;DHT22;494;48.744;10.106;2023-08-21T01:18:52;24.00;1.00
1011;DHT22;494;48.744;10.106;2023-08-21T01:21:25;24.00;1.00
1011;DHT22;494;48.744;10.106;2023-08-21T01:23:56;23.90;1.00
1011;DHT22;494;48.744;10.106;2023-08-21T01:26:25;23.90;1.00
1011;DHT22;494;48.744;10.106;2023-08-21T01:28:54;23.90;1.00
1011;DHT22;494;48.744;10.106;2023-08-21T01:31:28;23.80;1.00
1011;DHT22;494;48.744;10.106;2023-08-21T01:34:04;23.80;1.00
1011;DHT22;494;48.744;10.106;2023-08-21T01:36:35;23.80;1.00
1011;DHT22;494;48.744;10.106;2023-08-21T01:39:06;23.70;1.00
1011;DHT22;494;48.744;10.106;2023-08-21T01:41:36;23.60;1.00
1011;DHT22;494;48.744;10.106;2023-08-21T01:44:05;23.70;1.00
1011;DHT22;494;48.744;10.106;2023-08-21T01:46:34;23.70;1.00
1011;DHT22;494;48.744;10.106;2023-08-21T01:49:03;23.70;1.00
1011;DHT22;494;48.744;10.106;2023-08-21T01:51:32;23.60;1.00
1011;DHT22;494;48.744;10.106;2023-08-21T01:54:01;23.60;1.00
1011;DHT22;494;48.744;10.106;2023-08-21T01:56:31;23.70;1.00
1011;DHT22;494;48.744;10.106;2023-08-21T01:59:00;23.70;1.00
1011;DHT22;494;48.744;10.106;2023-08-21T02:01:29;23.60;1.00
1011;DHT22;494;48.744;10.106;2023-08-21T02:03:58;23.50;1.00
1011;DHT22;494;48.744;10.106;2023-08-21T02:06:27;23.40;1.00
1011;DHT22;494;48.744;10.106;2023-08-21T02:08:56;23.40;1.00
1011;DHT22;494;48.744;10.106;2023-08-21T02:11:25;23.40;1.00
1011;DHT22;494;48.744;10.106;2023-08-21T02:13:57;23.40;1.00
1011;DHT22;494;48.744;10.106;2023-08-21T02:16:28;23.50;1.00
1011;DHT22;494;48.744;10.106;2023-08-21T02:18:57;23.50;1.00
1011;DHT22;494;48.744;10.106;2023-08-21T02:21:26;23.50;1.00
1011;DHT22;494;48.744;10.106;2023-08-21T02:23:55;23.50;1.00
1011;DHT22;494;48.744;10.106;2023-08-21T02:26:24;23.50;1.00
1011;DHT22;494;48.744;10.106;2023-08-21T02:28:53;23.50;1.00
1011;DHT22;494;48.744;10.106;2023-08-21T02:31:23;23.50;1.00
1011;DHT22;494;48.744;10.106;2023-08-21T02:33:52;23.50;1.00
1011;DHT22;494;48.744;10.106;2023-08-21T02:36:21;23.50;1.00
1011;DHT22;494;48.744;10.106;2023-08-21T02:38:50;23.50;1.00
1011;DHT22;494;48.744;10.106;2023-08-21T02:41:18;23.50;1.00
1011;DHT22;494;48.744;10.106;2023-08-21T02:43:47;23.40;1.00
1011;DHT22;494;48.744;10.106;2023-08-21T02:46:16;23.40;1.00
1011;DHT22;494;48.744;10.106;2023-08-21T02:48:49;23.40;1.00
1011;DHT22;494;48.744;10.106;2023-08-21T02:51:18;23.40;1.00
1011;DHT22;494;48.744;10.106;2023-08-21T02:53:47;23.40;1.00
1011;DHT22;494;48.744;10.106;2023-08-21T02:56:15;23.40;1.00
1011;DHT22;494;48.744;10.106;2023-08-21T02:58:44;23.40;1.00
1011;DHT22;494;48.744;10.106;2023-08-21T03:01:18;23.40;1.00
1011;DHT22;494;48.744;10.106;2023-08-21T03:03:52;23.40;1.00
1011;DHT22;494;48.744;10.106;2023-08-21T03:06:21;23.30;1.00
1011;DHT22;494;48.744;10.106;2023-08-21T03:08:50;23.30;1.00
1011;DHT22;494;48.744;10.106;2023-08-21T03:11:20;23.20;1.00
1011;DHT22;494;48.744;10.106;2023-08-21T03:13:48;23.20;1.00
1011;DHT22;494;48.744;10.106;2023-08-21T03:16:17;23.20;1.00
1011;DHT22;494;48.744;10.106;2023-08-21T03:18:58;23.20;1.00
1011;DHT22;494;48.744;10.106;2023-08-21T03:21:27;23.20;1.00
1011;DHT22;494;48.744;10.106;2023-08-21T03:23:58;23.20;1.00
1011;DHT22;494;48.744;10.106;2023-08-21T03:26:30;23.10;1.00
1011;DHT22;494;48.744;10.106;2023-08-21T03:29:00;23.10;1.00
1011;DHT22;494;48.744;10.106;2023-08-21T03:31:30;23.10;1.00
1011;DHT22;494;48.744;10.106;2023-08-21T03:34:00;23.10;1.00
1011;DHT22;494;48.744;10.106;2023-08-21T03:36:30;23.00;1.00
1011;DHT22;494;48.744;10.106;2023-08-21T03:38:59;23.10;1.00
1011;DHT22;494;48.744;10.106;2023-08-21T03:41:28;23.00;1.00
1011;DHT22;494;48.744;10.106;2023-08-21T03:43:57;23.00;1.00
1011;DHT22;494;48.744;10.106;2023-08-21T03:46:27;23.00;1.00
1011;DHT22;494;48.744;10.106;2023-08-21T03:48:56;23.00;1.00
1011;DHT22;494;48.744;10.106;2023-08-21T03:51:28;23.00;1.00
1011;DHT22;494;48.744;10.106;2023-08-21T03:53:56;23.00;1.00
1011;DHT22;494;48.744;10.106;2023-08-21T03:56:25;22.90;1.00
1011;DHT22;494;48.744;10.106;2023-08-21T03:58:54;22.90;1.00
1011;DHT22;494;48.744;10.106;2023-08-21T04:01:24;22.90;1.00
1011;DHT22;494;48.744;10.106;2023-08-21T04:03:53;22.90;1.00
1011;DHT22;494;48.744;10.106;2023-08-21T04:06:23;22.90;1.00
1011;DHT22;494;48.744;10.106;2023-08-21T04:08:54;22.90;1.00
1011;DHT22;494;48.744;10.106;2023-08-21T04:11:23;23.00;1.00
1011;DHT22;494;48.744;10.106;2023-08-21T04:13:52;22.90;1.00
1011;DHT22;494;48.744;10.106;2023-08-21T04:16:21;23.00;1.00
1011;DHT22;494;48.744;10.106;2023-08-21T04:18:50;22.90;1.00
1011;DHT22;494;48.744;10.106;2023-08-21T04:21:19;22.90;1.00
1011;DHT22;494;48.744;10.106;2023-08-21T04:23:51;23.00;1.00
1011;DHT22;494;48.744;10.106;2023-08-21T04:26:22;22.90;1.00
1011;DHT22;494;48.744;10.106;2023-08-21T04:28:50;23.00;1.00
1011;DHT22;494;48.744;10.106;2023-08-21T04:31:22;23.00;1.00
1011;DHT22;494;48.744;10.106;2023-08-21T04:33:51;23.00;1.00
1011;DHT22;494;48.744;10.106;2023-08-21T04:36:20;22.90;1.00
1011;DHT22;494;48.744;10.106;2023-08-21T04:38:50;23.00;1.00
1011;DHT22;494;48.744;10.106;2023-08-21T04:41:21;23.00;1.00
1011;DHT22;494;48.744;10.106;2023-08-21T04:43:50;23.00;1.00
1011;DHT22;494;48.744;10.106;2023-08-21T04:46:18;22.90;1.00
1011;DHT22;494;48.744;10.106;2023-08-21T04:48:48;22.90;1.00
1011;DHT22;494;48.744;10.106;2023-08-21T04:51:17;22.90;1.00
1011;DHT22;494;48.744;10.106;2023-08-21T04:53:48;23.00;1.00
1011;DHT22;494;48.744;10.106;2023-08-21T04:56:19;23.00;1.00
1011;DHT22;494;48.744;10.106;2023-08-21T04:58:49;23.00;1.00
1011;DHT22;494;48.744;10.106;2023-08-21T05:01:18;23.00;1.00
1011;DHT22;494;48.744;10.106;2023-08-21T05:03:52;23.00;1.00
1011;DHT22;494;48.744;10.106;2023-08-21T05:06:22;23.00;1.00
1011;DHT22;494;48.744;10.106;2023-08-21T05:08:51;23.00;1.00
1011;DHT22;494;48.744;10.106;2023-08-21T05:11:22;23.00;1.00
1011;DHT22;494;48.744;10.106;2023-08-21T05:13:53;23.00;1.00
1011;DHT22;494;48.744;10.106;2023-08-21T05:16:23;23.00;1.00
1011;DHT22;494;48.744;10.106;2023-08-21T05:18:52;23.00;1.00
1011;DHT22;494;48.744;10.106;2023-08-21T05:21:20;23.00;1.00
1011;DHT22;494;48.744;10.106;2023-08-21T05:23:49;23.10;1.00
1011;DHT22;494;48.744;10.106;2023-08-21T05:26:19;23.10;1.00
1011;DHT22;494;48.744;10.106;2023-08-21T05:28:49;23.20;1.00
1011;DHT22;494;48.744;10.106;2023-08-21T05:31:18;23.30;1.00
1011;DHT22;494;48.744;10.106;2023-08-21T05:33:47;23.40;1.00
1011;DHT22;494;48.744;10.106;2023-08-21T05:36:16;23.50;1.00
1011;DHT22;494;48.744;10.106;2023-08-21T05:38:45;23.50;1.00
1011;DHT22;494;48.744;10.106;2023-08-21T05:41:16;23.60;1.00
1011;DHT22;494;48.744;10.106;2023-08-21T05:43:45;23.60;1.00
1011;DHT22;494;48.744;10.106;2023-08-21T05:46:18;23.70;1.00
1011;DHT22;494;48.744;10.106;2023-08-21T05:48:47;23.70;1.00
1011;DHT22;494;48.744;10.106;2023-08-21T05:51:16;23.80;1.00
1011;DHT22;494;48.744;10.106;2023-08-21T05:53:47;23.80;1.00
1011;DHT22;494;48.744;10.106;2023-08-21T05:56:16;23.80;1.00
1011;DHT22;494;48.744;10.106;2023-08-21T05:58:45;23.70;1.00
1011;DHT22;494;48.744;10.106;2023-08-21T06:01:19;23.80;1.00
1011;DHT22;494;48.744;10.106;2023-08-21T06:03:48;24.00;1.00
1011;DHT22;494;48.744;10.106;2023-08-21T06:06:17;24.10;1.00
1011;DHT22;494;48.744;10.106;2023-08-21T06:08:46;24.20;1.00
1011;DHT22;494;48.744;10.106;2023-08-21T06:11:15;24.40;1.00
1011;DHT22;494;48.744;10.106;2023-08-21T06:13:49;24.60;1.00
1011;DHT22;494;48.744;10.106;2023-08-21T06:16:20;24.80;1.00
1011;DHT22;494;48.744;10.106;2023-08-21T06:18:49;25.00;1.00
1011;DHT22;494;48.744;10.106;2023-08-21T06:21:18;25.00;1.00
1011;DHT22;494;48.744;10.106;2023-08-21T06:23:47;25.20;1.00
1011;DHT22;494;48.744;10.106;2023-08-21T06:26:15;25.30;1.00
1011;DHT22;494;48.744;10.106;2023-08-21T06:28:44;25.50;1.00
1011;DHT22;494;48.744;10.106;2023-08-21T06:31:13;25.70;1.00
1011;DHT22;494;48.744;10.106;2023-08-21T06:33:44;25.80;1.00
1011;DHT22;494;48.744;10.106;2023-08-21T06:36:13;25.90;1.00
1011;DHT22;494;48.744;10.106;2023-08-21T06:38:42;26.20;1.00
1011;DHT22;494;48.744;10.106;2023-08-21T06:41:12;26.30;1.00
1011;DHT22;494;48.744;10.106;2023-08-21T06:43:41;26.50;1.00
1011;DHT22;494;48.744;10.106;2023-08-21T06:46:12;26.70;1.00
1011;DHT22;494;48.744;10.106;2023-08-21T06:48:43;26.80;1.00
1011;DHT22;494;48.744;10.106;2023-08-21T06:51:13;26.90;1.00
1011;DHT22;494;48.744;10.106;2023-08-21T06:53:43;27.10;1.00
1011;DHT22;494;48.744;10.106;2023-08-21T06:56:13;27.20;1.00
1011;DHT22;494;48.744;10.106;2023-08-21T06:58:41;27.40;1.00
1011;DHT22;494;48.744;10.106;2023-08-21T07:01:10;27.50;1.00
1011;DHT22;494;48.744;10.106;2023-08-21T07:03:39;27.60;1.00
1011;DHT22;494;48.744;10.106;2023-08-21T07:06:09;27.80;1.00
1011;DHT22;494;48.744;10.106;2023-08-21T07:08:38;27.90;1.00
1011;DHT22;494;48.744;10.106;2023-08-21T07:11:08;27.80;1.00
1011;DHT22;494;48.744;10.106;2023-08-21T07:13:37;28.10;1.00
1011;DHT22;494;48.744;10.106;2023-08-21T07:16:07;28.30;1.00
1011;DHT22;494;48.744;10.106;2023-08-21T07:18:38;28.50;1.00
1011;DHT22;494;48.744;10.106;2023-08-21T07:21:09;28.80;1.00
1011;DHT22;494;48.744;10.106;2023-08-21T07:23:57;29.00;1.00
1011;DHT22;494;48.744;10.106;2023-08-21T07:26:27;29.10;1.00
1011;DHT22;494;48.744;10.106;2023-08-21T07:28:57;29.20;1.00
1011;DHT22;494;48.744;10.106;2023-08-21T07:31:26;29.40;1.00
1011;DHT22;494;48.744;10.106;2023-08-21T07:33:55;29.60;1.00
1011;DHT22;494;48.744;10.106;2023-08-21T07:36:26;29.70;1.00
1011;DHT22;494;48.744;10.106;2023-08-21T07:38:57;29.90;1.00
1011;DHT22;494;48.744;10.106;2023-08-21T07:41:26;30.10;1.00
1011;DHT22;494;48.744;10.106;2023-08-21T07:43:56;30.20;1.00
1011;DHT22;494;48.744;10.106;2023-08-21T07:46:27;30.30;1.00
1011;DHT22;494;48.744;10.106;2023-08-21T07:48:56;30.40;1.00
1011;DHT22;494;48.744;10.106;2023-08-21T07:51:27;30.60;1.00
1011;DHT22;494;48.744;10.106;2023-08-21T07:53:56;30.70;1.00
1011;DHT22;494;48.744;10.106;2023-08-21T07:56:27;30.80;1.00
1011;DHT22;494;48.744;10.106;2023-08-21T07:58:56;30.80;1.00
1011;DHT22;494;48.744;10.106;2023-08-21T08:01:25;31.00;1.00
1011;DHT22;494;48.744;10.106;2023-08-21T08:03:55;31.10;1.00
1011;DHT22;494;48.744;10.106;2023-08-21T08:06:24;31.20;1.00
1011;DHT22;494;48.744;10.106;2023-08-21T08:08:55;31.30;1.00
1011;DHT22;494;48.744;10.106;2023-08-21T08:11:24;31.50;1.00
1011;DHT22;494;48.744;10.106;2023-08-21T08:13:53;31.70;1.00
1011;DHT22;494;48.744;10.106;2023-08-21T08:16:23;31.90;1.00
1011;DHT22;494;48.744;10.106;2023-08-21T08:18:53;32.00;1.00
1011;DHT22;494;48.744;10.106;2023-08-21T08:21:23;32.00;1.00
1011;DHT22;494;48.744;10.106;2023-08-21T08:23:53;32.20;1.00
1011;DHT22;494;48.744;10.106;2023-08-21T08:26:22;32.20;1.00
1011;DHT22;494;48.744;10.106;2023-08-21T08:28:52;32.40;1.00
1011;DHT22;494;48.744;10.106;2023-08-21T08:31:21;32.40;1.00
1011;DHT22;494;48.744;10.106;2023-08-21T08:33:50;32.60;1.00
1011;DHT22;494;48.744;10.106;2023-08-21T08:36:20;32.60;1.00
1011;DHT22;494;48.744;10.106;2023-08-21T08:38:49;32.70;1.00
1011;DHT22;494;48.744;10.106;2023-08-21T08:41:25;32.90;1.00
1011;DHT22;494;48.744;10.106;2023-08-21T08:43:59;33.10;1.00
1011;DHT22;494;48.744;10.106;2023-08-21T08:46:32;33.30;1.00
1011;DHT22;494;48.744;10.106;2023-08-21T08:49:03;33.40;1.00
1011;DHT22;494;48.744;10.106;2023-08-21T08:51:38;33.50;1.00
1011;DHT22;494;48.744;10.106;2023-08-21T08:54:10;33.60;1.00
1011;DHT22;494;48.744;10.106;2023-08-21T08:56:51;33.70;1.00
1011;DHT22;494;48.744;10.106;2023-08-21T08:59:19;33.90;1.00
1011;DHT22;494;48.744;10.106;2023-08-21T09:01:48;34.10;1.00
1011;DHT22;494;48.744;10.106;2023-08-21T09:04:17;34.20;1.00
1011;DHT22;494;48.744;10.106;2023-08-21T09:06:46;34.40;1.00
1011;DHT22;494;48.744;10.106;2023-08-21T09:09:15;34.50;1.00
1011;DHT22;494;48.744;10.106;2023-08-21T09:11:47;34.70;1.00
1011;DHT22;494;48.744;10.106;2023-08-21T09:14:26;34.80;1.00
1011;DHT22;494;48.744;10.106;2023-08-21T09:17:00;34.90;1.00
1011;DHT22;494;48.744;10.106;2023-08-21T09:19:31;35.00;1.00
1011;DHT22;494;48.744;10.106;2023-08-21T09:22:08;35.10;1.00
1011;DHT22;494;48.744;10.106;2023-08-21T09:24:38;35.20;1.00
1011;DHT22;494;48.744;10.106;2023-08-21T09:27:13;35.30;1.00
1011;DHT22;494;48.744;10.106;2023-08-21T09:29:47;35.40;1.00
1011;DHT22;494;48.744;10.106;2023-08-21T09:32:23;35.40;1.00
1011;DHT22;494;48.744;10.106;2023-08-21T09:34:56;35.60;1.00
1011;DHT22;494;48.744;10.106;2023-08-21T09:37:32;35.70;1.00
1011;DHT22;494;48.744;10.106;2023-08-21T09:40:01;35.80;1.00
1011;DHT22;494;48.744;10.106;2023-08-21T09:42:34;36.00;1.00
1011;DHT22;494;48.744;10.106;2023-08-21T09:45:05;36.10;1.00
1011;DHT22;494;48.744;10.106;2023-08-21T09:47:35;36.20;1.00
1011;DHT22;494;48.744;10.106;2023-08-21T09:50:07;36.40;1.00
1011;DHT22;494;48.744;10.106;2023-08-21T09:52:37;36.50;1.00
1011;DHT22;494;48.744;10.106;2023-08-21T09:55:06;36.40;1.00
1011;DHT22;494;48.744;10.106;2023-08-21T09:57:37;36.30;1.00
1011;DHT22;494;48.744;10.106;2023-08-21T10:00:10;36.30;1.00
1011;DHT22;494;48.744;10.106;2023-08-21T10:02:43;36.40;1.00
1011;DHT22;494;48.744;10.106;2023-08-21T10:05:18;36.40;1.00
1011;DHT22;494;48.744;10.106;2023-08-21T10:07:48;36.40;1.00
1011;DHT22;494;48.744;10.106;2023-08-21T10:10:18;36.50;1.00
1011;DHT22;494;48.744;10.106;2023-08-21T10:12:48;36.40;1.00
1011;DHT22;494;48.744;10.106;2023-08-21T10:15:19;36.70;1.00
1011;DHT22;494;48.744;10.106;2023-08-21T10:17:48;36.80;1.00
1011;DHT22;494;48.744;10.106;2023-08-21T10:20:21;36.80;1.00
1011;DHT22;494;48.744;10.106;2023-08-21T10:22:54;36.80;1.00
1011;DHT22;494;48.744;10.106;2023-08-21T10:25:28;36.80;1.00
1011;DHT22;494;48.744;10.106;2023-08-21T10:27:59;36.90;1.00
1011;DHT22;494;48.744;10.106;2023-08-21T10:30:32;37.00;1.00
1011;DHT22;494;48.744;10.106;2023-08-21T10:33:01;37.20;1.00
1011;DHT22;494;48.744;10.106;2023-08-21T10:35:30;37.30;1.00
1011;DHT22;494;48.744;10.106;2023-08-21T10:38:09;37.40;1.00
1011;DHT22;494;48.744;10.106;2023-08-21T10:40:40;37.40;1.00
1011;DHT22;494;48.744;10.106;2023-08-21T10:43:39;37.40;1.00
1011;DHT22;494;48.744;10.106;2023-08-21T10:46:10;37.50;1.00
1011;DHT22;494;48.744;10.106;2023-08-21T10:48:40;37.70;1.00
1011;DHT22;494;48.744;10.106;2023-08-21T10:51:09;37.80;1.00
1011;DHT22;494;48.744;10.106;2023-08-21T10:53:40;37.90;1.00
1011;DHT22;494;48.744;10.106;2023-08-21T10:56:09;38.00;1.00
1011;DHT22;494;48.744;10.106;2023-08-21T10:58:38;38.20;1.00
1011;DHT22;494;48.744;10.106;2023-08-21T11:01:14;38.20;1.00
1011;DHT22;494;48.744;10.106;2023-08-21T11:03:46;38.30;1.00
1011;DHT22;494;48.744;10.106;2023-08-21T11:06:19;38.40;1.00
1011;DHT22;494;48.744;10.106;2023-08-21T11:08:47;38.60;1.00
1011;DHT22;494;48.744;10.106;2023-08-21T11:11:19;38.70;1.00
1011;DHT22;494;48.744;10.106;2023-08-21T11:13:53;38.80;1.00
1011;DHT22;494;48.744;10.106;2023-08-21T11:16:25;38.80;1.00
1011;DHT22;494;48.744;10.106;2023-08-21T11:18:54;38.80;1.00
1011;DHT22;494;48.744;10.106;2023-08-21T11:21:23;38.80;1.00
1011;DHT22;494;48.744;10.106;2023-08-21T11:23:52;39.10;1.00
1011;DHT22;494;48.744;10.106;2023-08-21T11:26:21;39.20;1.00
1011;DHT22;494;48.744;10.106;2023-08-21T11:28:55;39.30;1.00
1011;DHT22;494;48.744;10.106;2023-08-21T11:31:27;39.40;1.00
1011;DHT22;494;48.744;10.106;2023-08-21T11:33:58;39.50;1.00
1011;DHT22;494;48.744;10.106;2023-08-21T11:36:44;39.70;1.00
1011;DHT22;494;48.744;10.106;2023-08-21T11:39:13;39.80;1.00
1011;DHT22;494;48.744;10.106;2023-08-21T11:41:57;40.00;1.00
1011;DHT22;494;48.744;10.106;2023-08-21T11:44:27;40.20;1.00
1011;DHT22;494;48.744;10.106;2023-08-21T11:46:59;40.20;1.00
1011;DHT22;494;48.744;10.106;2023-08-21T11:49:30;40.30;1.00
1011;DHT22;494;48.744;10.106;2023-08-21T11:52:00;40.30;1.00
1011;DHT22;494;48.744;10.106;2023-08-21T11:54:33;40.00;1.00
1011;DHT22;494;48.744;10.106;2023-08-21T11:57:07;39.60;1.00
1011;DHT22;494;48.744;10.106;2023-08-21T11:59:37;39.40;1.00
1011;DHT22;494;48.744;10.106;2023-08-21T12:02:19;38.90;1.00
1011;DHT22;494;48.744;10.106;2023-08-21T12:04:56;38.60;1.00
1011;DHT22;494;48.744;10.106;2023-08-21T12:07:30;38.30;1.00
1011;DHT22;494;48.744;10.106;2023-08-21T12:09:59;38.30;1.00
1011;DHT22;494;48.744;10.106;2023-08-21T12:12:28;38.60;1.00
1011;DHT22;494;48.744;10.106;2023-08-21T12:14:57;38.70;1.00
1011;DHT22;494;48.744;10.106;2023-08-21T12:17:28;38.80;1.00
1011;DHT22;494;48.744;10.106;2023-08-21T12:19:58;38.70;1.00
1011;DHT22;494;48.744;10.106;2023-08-21T12:22:28;38.80;1.00
1011;DHT22;494;48.744;10.106;2023-08-21T12:24:57;39.00;1.00
1011;DHT22;494;48.744;10.106;2023-08-21T12:27:28;39.40;1.00
1011;DHT22;494;48.744;10.106;2023-08-21T12:29:56;39.80;1.00
1011;DHT22;494;48.744;10.106;2023-08-21T12:32:26;40.20;1.00
1011;DHT22;494;48.744;10.106;2023-08-21T12:34:56;40.60;1.00
1011;DHT22;494;48.744;10.106;2023-08-21T12:37:25;40.60;1.00
1011;DHT22;494;48.744;10.106;2023-08-21T12:39:54;40.30;1.00
1011;DHT22;494;48.744;10.106;2023-08-21T12:42:23;40.10;1.00
1011;DHT22;494;48.744;10.106;2023-08-21T12:44:52;40.00;1.00
1011;DHT22;494;48.744;10.106;2023-08-21T12:47:21;39.80;1.00
1011;DHT22;494;48.744;10.106;2023-08-21T12:49:52;40.00;1.00
1011;DHT22;494;48.744;10.106;2023-08-21T12:52:22;40.20;1.00
1011;DHT22;494;48.744;10.106;2023-08-21T12:54:51;40.50;1.00
1011;DHT22;494;48.744;10.106;2023-08-21T12:57:20;40.80;1.00
1011;DHT22;494;48.744;10.106;2023-08-21T12:59:49;40.90;1.00
1011;DHT22;494;48.744;10.106;2023-08-21T13:02:18;41.20;1.00
1011;DHT22;494;48.744;10.106;2023-08-21T13:04:47;41.20;1.00
1011;DHT22;494;48.744;10.106;2023-08-21T13:07:22;40.70;1.00
1011;DHT22;494;48.744;10.106;2023-08-21T13:09:51;40.20;1.00
1011;DHT22;494;48.744;10.106;2023-08-21T13:12:20;39.90;1.00
1011;DHT22;494;48.744;10.106;2023-08-21T13:14:49;40.00;1.00
1011;DHT22;494;48.744;10.106;2023-08-21T13:17:18;40.30;1.00
1011;DHT22;494;48.744;10.106;2023-08-21T13:19:47;40.50;1.00
1011;DHT22;494;48.744;10.106;2023-08-21T13:22:16;40.30;1.00
1011;DHT22;494;48.744;10.106;2023-08-21T13:24:47;40.30;1.00
1011;DHT22;494;48.744;10.106;2023-08-21T13:27:17;40.50;1.00
1011;DHT22;494;48.744;10.106;2023-08-21T13:29:46;40.60;1.00
1011;DHT22;494;48.744;10.106;2023-08-21T13:32:15;40.60;1.00
1011;DHT22;494;48.744;10.106;2023-08-21T13:34:44;40.70;1.00
1011;DHT22;494;48.744;10.106;2023-08-21T13:37:13;40.80;1.00
1011;DHT22;494;48.744;10.106;2023-08-21T13:39:42;41.00;1.00
1011;DHT22;494;48.744;10.106;2023-08-21T13:42:12;41.10;1.00
1011;DHT22;494;48.744;10.106;2023-08-21T13:44:41;41.20;1.00
1011;DHT22;494;48.744;10.106;2023-08-21T13:47:10;41.20;1.00
1011;DHT22;494;48.744;10.106;2023-08-21T13:49:39;41.40;1.00
1011;DHT22;494;48.744;10.106;2023-08-21T13:52:08;41.40;1.00
1011;DHT22;494;48.744;10.106;2023-08-21T13:54:37;41.60;1.00
1011;DHT22;494;48.744;10.106;2023-08-21T13:57:06;41.50;1.00
1011;DHT22;494;48.744;10.106;2023-08-21T13:59:38;41.60;1.00
1011;DHT22;494;48.744;10.106;2023-08-21T14:02:07;41.70;1.00
1011;DHT22;494;48.744;10.106;2023-08-21T14:04:36;41.70;1.00
1011;DHT22;494;48.744;10.106;2023-08-21T14:07:05;41.70;1.00
1011;DHT22;494;48.744;10.106;2023-08-21T14:09:34;41.70;1.00
1011;DHT22;494;48.744;10.106;2023-08-21T14:12:03;41.90;1.00
1011;DHT22;494;48.744;10.106;2023-08-21T14:14:35;41.90;1.00
1011;DHT22;494;48.744;10.106;2023-08-21T14:17:08;41.80;1.00
1011;DHT22;494;48.744;10.106;2023-08-21T14:19:39;41.80;1.00
1011;DHT22;494;48.744;10.106;2023-08-21T14:22:08;41.90;1.00
1011;DHT22;494;48.744;10.106;2023-08-21T14:24:37;42.00;1.00
1011;DHT22;494;48.744;10.106;2023-08-21T14:27:06;42.10;1.00
1011;DHT22;494;48.744;10.106;2023-08-21T14:29:36;42.20;1.00
1011;DHT22;494;48.744;10.106;2023-08-21T14:32:05;42.30;1.00
1011;DHT22;494;48.744;10.106;2023-08-21T14:34:35;42.50;1.00
1011;DHT22;494;48.744;10.106;2023-08-21T14:37:04;42.60;1.00
1011;DHT22;494;48.744;10.106;2023-08-21T14:39:34;42.80;1.00
1011;DHT22;494;48.744;10.106;2023-08-21T14:42:03;43.00;1.00
1011;DHT22;494;48.744;10.106;2023-08-21T14:44:33;43.00;1.00
1011;DHT22;494;48.744;10.106;2023-08-21T14:47:03;42.90;1.00
1011;DHT22;494;48.744;10.106;2023-08-21T14:49:36;42.70;1.00
1011;DHT22;494;48.744;10.106;2023-08-21T14:52:05;42.80;1.00
1011;DHT22;494;48.744;10.106;2023-08-21T14:54:34;42.90;1.00
1011;DHT22;494;48.744;10.106;2023-08-21T14:57:03;42.80;1.00
1011;DHT22;494;48.744;10.106;2023-08-21T14:59:32;42.80;1.00
1011;DHT22;494;48.744;10.106;2023-08-21T15:02:02;42.70;1.00
1011;DHT22;494;48.744;10.106;2023-08-21T15:04:31;42.40;1.00
1011;DHT22;494;48.744;10.106;2023-08-21T15:07:02;42.20;1.00
1011;DHT22;494;48.744;10.106;2023-08-21T15:09:31;42.20;1.00
1011;DHT22;494;48.744;10.106;2023-08-21T15:12:05;42.20;1.00
1011;DHT22;494;48.744;10.106;2023-08-21T15:14:34;42.30;1.00
1011;DHT22;494;48.744;10.106;2023-08-21T15:17:06;42.40;1.00
1011;DHT22;494;48.744;10.106;2023-08-21T15:19:46;42.30;1.00
1011;DHT22;494;48.744;10.106;2023-08-21T15:22:20;42.10;1.00
1011;DHT22;494;48.744;10.106;2023-08-21T15:24:49;42.30;1.00
1011;DHT22;494;48.744;10.106;2023-08-21T15:27:19;42.30;1.00
1011;DHT22;494;48.744;10.106;2023-08-21T15:29:47;42.20;1.00
1011;DHT22;494;48.744;10.106;2023-08-21T15:32:17;42.20;1.00
1011;DHT22;494;48.744;10.106;2023-08-21T15:34:45;42.10;1.00
1011;DHT22;494;48.744;10.106;2023-08-21T15:37:15;42.10;1.00
1011;DHT22;494;48.744;10.106;2023-08-21T15:39:45;41.90;1.00
1011;DHT22;494;48.744;10.106;2023-08-21T15:42:14;41.80;1.00
1011;DHT22;494;48.744;10.106;2023-08-21T15:44:43;41.30;1.00
1011;DHT22;494;48.744;10.106;2023-08-21T15:47:12;40.90;1.00
1011;DHT22;494;48.744;10.106;2023-08-21T15:50:01;40.50;1.00
1011;DHT22;494;48.744;10.106;2023-08-21T15:52:30;40.20;1.00
1011;DHT22;494;48.744;10.106;2023-08-21T15:55:00;40.10;1.00
1011;DHT22;494;48.744;10.106;2023-08-21T15:57:29;40.00;1.00
1011;DHT22;494;48.744;10.106;2023-08-21T15:59:58;40.10;1.00
1011;DHT22;494;48.744;10.106;2023-08-21T16:02:27;40.30;1.00
1011;DHT22;494;48.744;10.106;2023-08-21T16:04:56;40.50;1.00
1011;DHT22;494;48.744;10.106;2023-08-21T16:07:24;40.50;1.00
1011;DHT22;494;48.744;10.106;2023-08-21T16:09:53;40.60;1.00
1011;DHT22;494;48.744;10.106;2023-08-21T16:12:25;40.70;1.00
1011;DHT22;494;48.744;10.106;2023-08-21T16:14:54;40.90;1.00
1011;DHT22;494;48.744;10.106;2023-08-21T16:17:25;41.10;1.00
1011;DHT22;494;48.744;10.106;2023-08-21T16:19:54;41.10;1.00
1011;DHT22;494;48.744;10.106;2023-08-21T16:22:23;41.00;1.00
1011;DHT22;494;48.744;10.106;2023-08-21T16:24:52;40.70;1.00
1011;DHT22;494;48.744;10.106;2023-08-21T16:27:22;40.40;1.00
1011;DHT22;494;48.744;10.106;2023-08-21T16:29:53;39.90;1.00
1011;DHT22;494;48.744;10.106;2023-08-21T16:32:22;39.50;1.00
1011;DHT22;494;48.744;10.106;2023-08-21T16:34:51;39.30;1.00
1011;DHT22;494;48.744;10.106;2023-08-21T16:37:20;39.00;1.00